sensor_id;sensor_type;location;lat;lon;timestamp;P1;durP1;ratioP1;P2;durP2;ratioP2
26034;SDS011;13809;48.632;11.576;2023-03-01T00:00:22;12.90;;;11.60;;
26034;SDS011;13809;48.632;11.576;2023-03-01T00:05:25;11.67;;;10.47;;
26034;SDS011;13809;48.632;11.576;2023-03-01T00:10:28;12.53;;;11.27;;
26034;SDS011;13809;48.632;11.576;2023-03-01T00:15:33;13.30;;;11.87;;
26034;SDS011;13809;48.632;11.576;2023-03-01T00:20:39;11.83;;;10.67;;
26034;SDS011;13809;48.632;11.576;2023-03-01T00:25:43;12.73;;;11.43;;
26034;SDS011;13809;48.632;11.576;2023-03-01T00:30:47;12.20;;;11.00;;
26034;SDS011;13809;48.632;11.576;2023-03-01T00:35:51;12.23;;;11.03;;
26034;SDS011;13809;48.632;11.576;2023-03-01T00:40:54;12.27;;;11.07;;
26034;SDS011;13809;48.632;11.576;2023-03-01T00:46:01;13.07;;;11.80;;
26034;SDS011;13809;48.632;11.576;2023-03-01T00:51:06;12.77;;;11.50;;
26034;SDS011;13809;48.632;11.576;2023-03-01T00:56:11;13.20;;;11.33;;
26034;SDS011;13809;48.632;11.576;2023-03-01T01:01:17;12.13;;;10.93;;
26034;SDS011;13809;48.632;11.576;2023-03-01T01:06:23;12.87;;;11.57;;
26034;SDS011;13809;48.632;11.576;2023-03-01T01:11:28;13.50;;;12.17;;
26034;SDS011;13809;48.632;11.576;2023-03-01T01:16:33;12.83;;;11.47;;
26034;SDS011;13809;48.632;11.576;2023-03-01T01:21:36;12.63;;;11.37;;
26034;SDS011;13809;48.632;11.576;2023-03-01T01:26:40;12.53;;;11.23;;
26034;SDS011;13809;48.632;11.576;2023-03-01T01:31:44;13.27;;;11.93;;
26034;SDS011;13809;48.632;11.576;2023-03-01T01:36:48;11.90;;;10.70;;
26034;SDS011;13809;48.632;11.576;2023-03-01T01:41:52;13.10;;;11.80;;
26034;SDS011;13809;48.632;11.576;2023-03-01T01:46:57;12.87;;;11.57;;
26034;SDS011;13809;48.632;11.576;2023-03-01T01:52:06;13.50;;;12.10;;
26034;SDS011;13809;48.632;11.576;2023-03-01T01:57:12;13.03;;;11.73;;
26034;SDS011;13809;48.632;11.576;2023-03-01T02:02:21;14.03;;;12.53;;
26034;SDS011;13809;48.632;11.576;2023-03-01T02:07:25;13.90;;;12.43;;
26034;SDS011;13809;48.632;11.576;2023-03-01T02:12:28;13.90;;;12.47;;
26034;SDS011;13809;48.632;11.576;2023-03-01T02:17:34;13.87;;;11.90;;
26034;SDS011;13809;48.632;11.576;2023-03-01T02:22:37;13.40;;;12.00;;
26034;SDS011;13809;48.632;11.576;2023-03-01T02:27:45;12.97;;;11.67;;
26034;SDS011;13809;48.632;11.576;2023-03-01T02:32:55;12.77;;;11.47;;
26034;SDS011;13809;48.632;11.576;2023-03-01T02:38:05;13.67;;;12.23;;
26034;SDS011;13809;48.632;11.576;2023-03-01T02:43:11;13.80;;;12.40;;
26034;SDS011;13809;48.632;11.576;2023-03-01T02:48:16;13.67;;;12.27;;
26034;SDS011;13809;48.632;11.576;2023-03-01T02:53:21;13.53;;;11.63;;
26034;SDS011;13809;48.632;11.576;2023-03-01T02:58:30;12.63;;;11.33;;
26034;SDS011;13809;48.632;11.576;2023-03-01T03:03:34;12.13;;;10.93;;
26034;SDS011;13809;48.632;11.576;2023-03-01T03:08:37;12.83;;;11.40;;
26034;SDS011;13809;48.632;11.576;2023-03-01T03:13:41;13.00;;;11.60;;
26034;SDS011;13809;48.632;11.576;2023-03-01T03:18:50;12.43;;;11.13;;
26034;SDS011;13809;48.632;11.576;2023-03-01T03:23:53;12.63;;;11.33;;
26034;SDS011;13809;48.632;11.576;2023-03-01T03:28:59;11.93;;;10.67;;
26034;SDS011;13809;48.632;11.576;2023-03-01T03:34:04;13.53;;;12.13;;
26034;SDS011;13809;48.632;11.576;2023-03-01T03:39:09;11.57;;;10.30;;
26034;SDS011;13809;48.632;11.576;2023-03-01T03:44:12;12.50;;;11.30;;
26034;SDS011;13809;48.632;11.576;2023-03-01T03:49:16;12.77;;;11.57;;
26034;SDS011;13809;48.632;11.576;2023-03-01T03:54:19;12.97;;;11.63;;
26034;SDS011;13809;48.632;11.576;2023-03-01T03:59:22;12.10;;;10.87;;
26034;SDS011;13809;48.632;11.576;2023-03-01T04:04:27;13.43;;;12.03;;
26034;SDS011;13809;48.632;11.576;2023-03-01T04:09:30;13.40;;;12.00;;
26034;SDS011;13809;48.632;11.576;2023-03-01T04:14:33;12.77;;;11.47;;
26034;SDS011;13809;48.632;11.576;2023-03-01T04:19:38;14.20;;;12.03;;
26034;SDS011;13809;48.632;11.576;2023-03-01T04:24:41;13.60;;;11.77;;
26034;SDS011;13809;48.632;11.576;2023-03-01T04:29:44;11.60;;;10.30;;
26034;SDS011;13809;48.632;11.576;2023-03-01T04:34:49;12.80;;;11.47;;
26034;SDS011;13809;48.632;11.576;2023-03-01T04:39:52;13.17;;;11.83;;
26034;SDS011;13809;48.632;11.576;2023-03-01T04:44:55;13.67;;;11.60;;
26034;SDS011;13809;48.632;11.576;2023-03-01T04:49:59;14.13;;;12.47;;
26034;SDS011;13809;48.632;11.576;2023-03-01T04:55:02;14.43;;;12.10;;
26034;SDS011;13809;48.632;11.576;2023-03-01T05:00:08;13.67;;;12.27;;
26034;SDS011;13809;48.632;11.576;2023-03-01T05:05:27;13.43;;;11.87;;
26034;SDS011;13809;48.632;11.576;2023-03-01T05:10:34;12.40;;;11.17;;
26034;SDS011;13809;48.632;11.576;2023-03-01T05:15:40;13.50;;;12.20;;
26034;SDS011;13809;48.632;11.576;2023-03-01T05:20:44;12.73;;;11.43;;
26034;SDS011;13809;48.632;11.576;2023-03-01T05:25:48;13.80;;;12.40;;
26034;SDS011;13809;48.632;11.576;2023-03-01T05:30:53;14.20;;;12.70;;
26034;SDS011;13809;48.632;11.576;2023-03-01T05:35:59;15.27;;;13.13;;
26034;SDS011;13809;48.632;11.576;2023-03-01T05:41:02;14.33;;;12.93;;
26034;SDS011;13809;48.632;11.576;2023-03-01T05:46:06;13.93;;;12.43;;
26034;SDS011;13809;48.632;11.576;2023-03-01T05:51:15;14.83;;;13.00;;
26034;SDS011;13809;48.632;11.576;2023-03-01T05:56:18;14.53;;;12.93;;
26034;SDS011;13809;48.632;11.576;2023-03-01T06:01:23;14.90;;;12.30;;
26034;SDS011;13809;48.632;11.576;2023-03-01T06:06:28;14.67;;;12.93;;
26034;SDS011;13809;48.632;11.576;2023-03-01T06:11:33;13.67;;;12.27;;
26034;SDS011;13809;48.632;11.576;2023-03-01T06:16:36;14.40;;;12.67;;
26034;SDS011;13809;48.632;11.576;2023-03-01T06:21:41;11.97;;;9.67;;
26034;SDS011;13809;48.632;11.576;2023-03-01T06:26:44;14.53;;;12.30;;
26034;SDS011;13809;48.632;11.576;2023-03-01T06:31:47;15.50;;;12.57;;
26034;SDS011;13809;48.632;11.576;2023-03-01T06:36:51;14.00;;;11.53;;
26034;SDS011;13809;48.632;11.576;2023-03-01T06:41:55;16.23;;;13.37;;
26034;SDS011;13809;48.632;11.576;2023-03-01T06:46:58;14.27;;;12.83;;
26034;SDS011;13809;48.632;11.576;2023-03-01T06:52:02;14.40;;;12.80;;
26034;SDS011;13809;48.632;11.576;2023-03-01T06:57:06;15.17;;;12.83;;
26034;SDS011;13809;48.632;11.576;2023-03-01T07:02:09;16.57;;;12.97;;
26034;SDS011;13809;48.632;11.576;2023-03-01T07:07:14;14.93;;;12.30;;
26034;SDS011;13809;48.632;11.576;2023-03-01T07:12:19;15.30;;;12.13;;
26034;SDS011;13809;48.632;11.576;2023-03-01T07:17:22;14.17;;;12.07;;
26034;SDS011;13809;48.632;11.576;2023-03-01T07:22:26;17.20;;;13.13;;
26034;SDS011;13809;48.632;11.576;2023-03-01T07:27:29;17.13;;;12.93;;
26034;SDS011;13809;48.632;11.576;2023-03-01T07:32:33;17.00;;;13.10;;
26034;SDS011;13809;48.632;11.576;2023-03-01T07:37:37;15.50;;;12.83;;
26034;SDS011;13809;48.632;11.576;2023-03-01T07:42:40;14.77;;;13.23;;
26034;SDS011;13809;48.632;11.576;2023-03-01T07:47:44;15.83;;;12.70;;
26034;SDS011;13809;48.632;11.576;2023-03-01T07:52:49;16.00;;;13.83;;
26034;SDS011;13809;48.632;11.576;2023-03-01T07:57:52;14.53;;;12.93;;
26034;SDS011;13809;48.632;11.576;2023-03-01T08:02:58;15.47;;;13.37;;
26034;SDS011;13809;48.632;11.576;2023-03-01T08:08:03;16.17;;;14.03;;
26034;SDS011;13809;48.632;11.576;2023-03-01T08:13:07;17.67;;;14.37;;
26034;SDS011;13809;48.632;11.576;2023-03-01T08:18:10;16.97;;;14.60;;
26034;SDS011;13809;48.632;11.576;2023-03-01T08:23:15;17.07;;;14.93;;
26034;SDS011;13809;48.632;11.576;2023-03-01T08:28:18;15.90;;;14.20;;
26034;SDS011;13809;48.632;11.576;2023-03-01T08:33:21;19.27;;;15.87;;
26034;SDS011;13809;48.632;11.576;2023-03-01T08:38:25;17.50;;;15.07;;
26034;SDS011;13809;48.632;11.576;2023-03-01T08:43:29;16.50;;;14.83;;
26034;SDS011;13809;48.632;11.576;2023-03-01T08:48:32;15.67;;;14.03;;
26034;SDS011;13809;48.632;11.576;2023-03-01T08:53:37;17.43;;;15.53;;
26034;SDS011;13809;48.632;11.576;2023-03-01T08:58:43;16.37;;;14.67;;
26034;SDS011;13809;48.632;11.576;2023-03-01T09:03:46;16.27;;;14.47;;
26034;SDS011;13809;48.632;11.576;2023-03-01T09:08:51;16.00;;;14.37;;
26034;SDS011;13809;48.632;11.576;2023-03-01T09:13:56;16.07;;;14.37;;
26034;SDS011;13809;48.632;11.576;2023-03-01T09:18:59;15.40;;;13.90;;
26034;SDS011;13809;48.632;11.576;2023-03-01T09:24:03;15.70;;;14.10;;
26034;SDS011;13809;48.632;11.576;2023-03-01T09:29:07;15.07;;;13.47;;
26034;SDS011;13809;48.632;11.576;2023-03-01T09:34:11;16.00;;;14.27;;
26034;SDS011;13809;48.632;11.576;2023-03-01T09:39:18;15.63;;;13.53;;
26034;SDS011;13809;48.632;11.576;2023-03-01T09:44:29;15.10;;;13.60;;
26034;SDS011;13809;48.632;11.576;2023-03-01T09:49:39;15.13;;;13.60;;
26034;SDS011;13809;48.632;11.576;2023-03-01T09:54:52;15.80;;;13.97;;
26034;SDS011;13809;48.632;11.576;2023-03-01T10:00:03;15.27;;;13.70;;
26034;SDS011;13809;48.632;11.576;2023-03-01T10:05:21;14.47;;;13.07;;
26034;SDS011;13809;48.632;11.576;2023-03-01T10:10:36;15.70;;;13.37;;
26034;SDS011;13809;48.632;11.576;2023-03-01T10:15:43;15.70;;;14.10;;
26034;SDS011;13809;48.632;11.576;2023-03-01T10:20:52;15.27;;;13.77;;
26034;SDS011;13809;48.632;11.576;2023-03-01T10:26:00;15.27;;;13.77;;
26034;SDS011;13809;48.632;11.576;2023-03-01T10:31:20;14.53;;;13.13;;
26034;SDS011;13809;48.632;11.576;2023-03-01T10:36:30;15.00;;;13.50;;
26034;SDS011;13809;48.632;11.576;2023-03-01T10:41:37;15.10;;;13.60;;
26034;SDS011;13809;48.632;11.576;2023-03-01T10:46:58;15.60;;;13.97;;
26034;SDS011;13809;48.632;11.576;2023-03-01T10:52:11;15.57;;;14.03;;
26034;SDS011;13809;48.632;11.576;2023-03-01T10:57:36;16.23;;;14.50;;
26034;SDS011;13809;48.632;11.576;2023-03-01T11:02:43;15.47;;;13.67;;
26034;SDS011;13809;48.632;11.576;2023-03-01T11:07:49;15.93;;;14.33;;
26034;SDS011;13809;48.632;11.576;2023-03-01T11:13:05;16.57;;;14.63;;
26034;SDS011;13809;48.632;11.576;2023-03-01T11:18:18;15.30;;;13.73;;
26034;SDS011;13809;48.632;11.576;2023-03-01T11:23:37;14.37;;;13.00;;
26034;SDS011;13809;48.632;11.576;2023-03-01T11:28:43;15.03;;;13.60;;
26034;SDS011;13809;48.632;11.576;2023-03-01T11:33:54;15.03;;;13.43;;
26034;SDS011;13809;48.632;11.576;2023-03-01T11:39:03;14.73;;;13.23;;
26034;SDS011;13809;48.632;11.576;2023-03-01T11:44:16;15.20;;;13.60;;
26034;SDS011;13809;48.632;11.576;2023-03-01T11:55:16;14.03;;;12.73;;
26034;SDS011;13809;48.632;11.576;2023-03-01T12:00:33;14.77;;;13.37;;
26034;SDS011;13809;48.632;11.576;2023-03-01T12:11:28;13.83;;;12.43;;
26034;SDS011;13809;48.632;11.576;2023-03-01T12:22:34;13.40;;;12.20;;
26034;SDS011;13809;48.632;11.576;2023-03-01T12:27:49;15.40;;;13.20;;
26034;SDS011;13809;48.632;11.576;2023-03-01T12:33:04;14.97;;;13.33;;
26034;SDS011;13809;48.632;11.576;2023-03-01T12:38:30;13.03;;;11.73;;
26034;SDS011;13809;48.632;11.576;2023-03-01T12:43:42;13.70;;;12.23;;
26034;SDS011;13809;48.632;11.576;2023-03-01T12:48:59;14.10;;;12.73;;
26034;SDS011;13809;48.632;11.576;2023-03-01T12:54:14;13.47;;;12.17;;
26034;SDS011;13809;48.632;11.576;2023-03-01T12:59:19;14.07;;;12.63;;
26034;SDS011;13809;48.632;11.576;2023-03-01T13:04:29;13.57;;;12.30;;
26034;SDS011;13809;48.632;11.576;2023-03-01T13:09:47;12.77;;;11.57;;
26034;SDS011;13809;48.632;11.576;2023-03-01T13:14:57;13.03;;;11.67;;
26034;SDS011;13809;48.632;11.576;2023-03-01T13:20:00;13.07;;;11.77;;
26034;SDS011;13809;48.632;11.576;2023-03-01T13:25:17;12.30;;;11.13;;
26034;SDS011;13809;48.632;11.576;2023-03-01T13:30:41;13.80;;;12.40;;
26034;SDS011;13809;48.632;11.576;2023-03-01T13:35:45;13.67;;;11.80;;
26034;SDS011;13809;48.632;11.576;2023-03-01T13:40:58;12.83;;;11.47;;
26034;SDS011;13809;48.632;11.576;2023-03-01T13:46:07;12.83;;;11.63;;
26034;SDS011;13809;48.632;11.576;2023-03-01T13:51:13;13.17;;;11.97;;
26034;SDS011;13809;48.632;11.576;2023-03-01T13:56:18;13.80;;;12.43;;
26034;SDS011;13809;48.632;11.576;2023-03-01T14:01:27;12.77;;;11.57;;
26034;SDS011;13809;48.632;11.576;2023-03-01T14:06:32;13.87;;;12.30;;
26034;SDS011;13809;48.632;11.576;2023-03-01T14:11:48;13.30;;;10.90;;
26034;SDS011;13809;48.632;11.576;2023-03-01T14:22:57;12.67;;;11.37;;
26034;SDS011;13809;48.632;11.576;2023-03-01T14:28:10;12.23;;;11.13;;
26034;SDS011;13809;48.632;11.576;2023-03-01T14:33:19;12.70;;;11.40;;
26034;SDS011;13809;48.632;11.576;2023-03-01T14:38:30;13.33;;;12.00;;
26034;SDS011;13809;48.632;11.576;2023-03-01T14:43:38;12.23;;;11.03;;
26034;SDS011;13809;48.632;11.576;2023-03-01T14:48:47;12.40;;;11.20;;
26034;SDS011;13809;48.632;11.576;2023-03-01T14:53:52;12.33;;;11.17;;
26034;SDS011;13809;48.632;11.576;2023-03-01T14:58:58;13.03;;;11.73;;
26034;SDS011;13809;48.632;11.576;2023-03-01T15:04:01;11.93;;;10.83;;
26034;SDS011;13809;48.632;11.576;2023-03-01T15:09:05;12.87;;;11.73;;
26034;SDS011;13809;48.632;11.576;2023-03-01T15:14:28;12.70;;;11.40;;
26034;SDS011;13809;48.632;11.576;2023-03-01T15:19:40;13.90;;;12.50;;
26034;SDS011;13809;48.632;11.576;2023-03-01T15:24:46;13.80;;;12.40;;
26034;SDS011;13809;48.632;11.576;2023-03-01T15:29:52;13.77;;;12.37;;
26034;SDS011;13809;48.632;11.576;2023-03-01T15:34:58;13.83;;;12.43;;
26034;SDS011;13809;48.632;11.576;2023-03-01T15:40:02;14.47;;;13.00;;
26034;SDS011;13809;48.632;11.576;2023-03-01T15:45:23;14.40;;;12.90;;
26034;SDS011;13809;48.632;11.576;2023-03-01T15:50:29;14.03;;;12.57;;
26034;SDS011;13809;48.632;11.576;2023-03-01T15:55:34;16.47;;;14.20;;
26034;SDS011;13809;48.632;11.576;2023-03-01T16:00:38;15.33;;;13.53;;
26034;SDS011;13809;48.632;11.576;2023-03-01T16:05:59;15.23;;;13.80;;
26034;SDS011;13809;48.632;11.576;2023-03-01T16:11:02;15.77;;;14.17;;
26034;SDS011;13809;48.632;11.576;2023-03-01T16:16:08;14.90;;;13.37;;
26034;SDS011;13809;48.632;11.576;2023-03-01T16:21:18;16.33;;;14.27;;
26034;SDS011;13809;48.632;11.576;2023-03-01T16:26:25;14.87;;;13.47;;
26034;SDS011;13809;48.632;11.576;2023-03-01T16:31:30;15.50;;;13.90;;
26034;SDS011;13809;48.632;11.576;2023-03-01T16:36:35;17.27;;;14.43;;
26034;SDS011;13809;48.632;11.576;2023-03-01T16:41:38;15.30;;;13.70;;
26034;SDS011;13809;48.632;11.576;2023-03-01T16:46:42;14.50;;;12.93;;
26034;SDS011;13809;48.632;11.576;2023-03-01T16:51:45;14.73;;;13.30;;
26034;SDS011;13809;48.632;11.576;2023-03-01T16:56:49;16.20;;;13.50;;
26034;SDS011;13809;48.632;11.576;2023-03-01T17:01:53;14.40;;;12.90;;
26034;SDS011;13809;48.632;11.576;2023-03-01T17:06:56;14.67;;;13.17;;
26034;SDS011;13809;48.632;11.576;2023-03-01T17:11:59;14.50;;;13.00;;
26034;SDS011;13809;48.632;11.576;2023-03-01T17:17:04;15.67;;;13.87;;
26034;SDS011;13809;48.632;11.576;2023-03-01T17:22:07;15.47;;;13.87;;
26034;SDS011;13809;48.632;11.576;2023-03-01T17:27:10;15.17;;;13.57;;
26034;SDS011;13809;48.632;11.576;2023-03-01T17:32:15;15.23;;;13.63;;
26034;SDS011;13809;48.632;11.576;2023-03-01T17:37:19;15.07;;;13.57;;
26034;SDS011;13809;48.632;11.576;2023-03-01T17:42:22;14.90;;;13.40;;
26034;SDS011;13809;48.632;11.576;2023-03-01T17:47:26;15.30;;;13.43;;
26034;SDS011;13809;48.632;11.576;2023-03-01T17:52:29;14.77;;;13.27;;
26034;SDS011;13809;48.632;11.576;2023-03-01T17:57:32;15.20;;;13.67;;
26034;SDS011;13809;48.632;11.576;2023-03-01T18:02:37;14.27;;;12.83;;
26034;SDS011;13809;48.632;11.576;2023-03-01T18:07:40;15.47;;;13.67;;
26034;SDS011;13809;48.632;11.576;2023-03-01T18:12:44;14.87;;;13.30;;
26034;SDS011;13809;48.632;11.576;2023-03-01T18:17:48;14.47;;;12.97;;
26034;SDS011;13809;48.632;11.576;2023-03-01T18:22:51;14.90;;;13.20;;
26034;SDS011;13809;48.632;11.576;2023-03-01T18:27:54;16.00;;;14.00;;
26034;SDS011;13809;48.632;11.576;2023-03-01T18:32:59;14.47;;;12.97;;
26034;SDS011;13809;48.632;11.576;2023-03-01T18:38:02;14.93;;;13.43;;
26034;SDS011;13809;48.632;11.576;2023-03-01T18:43:06;15.73;;;14.10;;
26034;SDS011;13809;48.632;11.576;2023-03-01T18:48:10;14.37;;;12.97;;
26034;SDS011;13809;48.632;11.576;2023-03-01T18:53:14;14.83;;;13.27;;
26034;SDS011;13809;48.632;11.576;2023-03-01T18:58:17;15.77;;;14.17;;
26034;SDS011;13809;48.632;11.576;2023-03-01T19:03:22;16.00;;;14.27;;
26034;SDS011;13809;48.632;11.576;2023-03-01T19:08:25;15.73;;;13.33;;
26034;SDS011;13809;48.632;11.576;2023-03-01T19:13:28;15.97;;;14.07;;
26034;SDS011;13809;48.632;11.576;2023-03-01T19:18:33;15.70;;;14.10;;
26034;SDS011;13809;48.632;11.576;2023-03-01T19:23:37;16.03;;;13.93;;
26034;SDS011;13809;48.632;11.576;2023-03-01T19:28:40;15.47;;;13.87;;
26034;SDS011;13809;48.632;11.576;2023-03-01T19:33:46;15.40;;;13.53;;
26034;SDS011;13809;48.632;11.576;2023-03-01T19:38:50;14.67;;;12.53;;
26034;SDS011;13809;48.632;11.576;2023-03-01T19:43:53;15.03;;;13.43;;
26034;SDS011;13809;48.632;11.576;2023-03-01T19:48:59;15.23;;;13.73;;
26034;SDS011;13809;48.632;11.576;2023-03-01T19:54:04;13.30;;;11.90;;
26034;SDS011;13809;48.632;11.576;2023-03-01T19:59:07;15.97;;;13.57;;
26034;SDS011;13809;48.632;11.576;2023-03-01T20:04:11;15.20;;;13.60;;
26034;SDS011;13809;48.632;11.576;2023-03-01T20:09:15;13.60;;;12.20;;
26034;SDS011;13809;48.632;11.576;2023-03-01T20:14:22;13.73;;;12.23;;
26034;SDS011;13809;48.632;11.576;2023-03-01T20:19:27;14.87;;;13.23;;
26034;SDS011;13809;48.632;11.576;2023-03-01T20:24:30;13.57;;;12.13;;
26034;SDS011;13809;48.632;11.576;2023-03-01T20:29:33;13.77;;;12.27;;
26034;SDS011;13809;48.632;11.576;2023-03-01T20:34:38;13.23;;;11.87;;
26034;SDS011;13809;48.632;11.576;2023-03-01T20:39:41;13.93;;;12.53;;
26034;SDS011;13809;48.632;11.576;2023-03-01T20:44:44;13.33;;;11.90;;
26034;SDS011;13809;48.632;11.576;2023-03-01T20:49:50;14.00;;;12.47;;
26034;SDS011;13809;48.632;11.576;2023-03-01T20:54:53;14.53;;;12.97;;
26034;SDS011;13809;48.632;11.576;2023-03-01T20:59:56;13.57;;;12.17;;
26034;SDS011;13809;48.632;11.576;2023-03-01T21:05:01;15.03;;;12.23;;
26034;SDS011;13809;48.632;11.576;2023-03-01T21:10:04;11.87;;;10.70;;
26034;SDS011;13809;48.632;11.576;2023-03-01T21:15:08;13.03;;;11.53;;
26034;SDS011;13809;48.632;11.576;2023-03-01T21:20:29;10.87;;;9.77;;
26034;SDS011;13809;48.632;11.576;2023-03-01T21:25:32;13.50;;;11.97;;
26034;SDS011;13809;48.632;11.576;2023-03-01T21:30:36;12.50;;;11.30;;
26034;SDS011;13809;48.632;11.576;2023-03-01T21:35:40;12.77;;;11.30;;
26034;SDS011;13809;48.632;11.576;2023-03-01T21:40:43;11.43;;;10.27;;
26034;SDS011;13809;48.632;11.576;2023-03-01T21:45:46;12.37;;;11.07;;
26034;SDS011;13809;48.632;11.576;2023-03-01T21:50:54;12.20;;;10.90;;
26034;SDS011;13809;48.632;11.576;2023-03-01T21:55:57;11.97;;;10.77;;
26034;SDS011;13809;48.632;11.576;2023-03-01T22:01:05;11.73;;;10.23;;
26034;SDS011;13809;48.632;11.576;2023-03-01T22:06:11;10.83;;;9.73;;
26034;SDS011;13809;48.632;11.576;2023-03-01T22:11:20;12.03;;;10.67;;
26034;SDS011;13809;48.632;11.576;2023-03-01T22:16:24;11.50;;;10.33;;
26034;SDS011;13809;48.632;11.576;2023-03-01T22:21:30;10.10;;;9.10;;
26034;SDS011;13809;48.632;11.576;2023-03-01T22:26:34;11.30;;;10.20;;
26034;SDS011;13809;48.632;11.576;2023-03-01T22:31:39;11.63;;;10.43;;
26034;SDS011;13809;48.632;11.576;2023-03-01T22:36:46;11.77;;;10.53;;
26034;SDS011;13809;48.632;11.576;2023-03-01T22:41:49;12.13;;;10.87;;
26034;SDS011;13809;48.632;11.576;2023-03-01T22:46:55;11.80;;;10.60;;
26034;SDS011;13809;48.632;11.576;2023-03-01T22:51:59;10.80;;;9.73;;
26034;SDS011;13809;48.632;11.576;2023-03-01T22:57:02;10.93;;;9.73;;
26034;SDS011;13809;48.632;11.576;2023-03-01T23:02:06;11.60;;;9.80;;
26034;SDS011;13809;48.632;11.576;2023-03-01T23:07:10;9.60;;;8.50;;
26034;SDS011;13809;48.632;11.576;2023-03-01T23:12:13;12.87;;;10.63;;
26034;SDS011;13809;48.632;11.576;2023-03-01T23:17:16;12.70;;;10.33;;
26034;SDS011;13809;48.632;11.576;2023-03-01T23:22:21;10.20;;;9.20;;
26034;SDS011;13809;48.632;11.576;2023-03-01T23:27:24;11.97;;;9.33;;
26034;SDS011;13809;48.632;11.576;2023-03-01T23:32:30;10.20;;;9.10;;
26034;SDS011;13809;48.632;11.576;2023-03-01T23:37:40;11.93;;;8.97;;
26034;SDS011;13809;48.632;11.576;2023-03-01T23:42:43;9.87;;;8.87;;
26034;SDS011;13809;48.632;11.576;2023-03-01T23:47:46;10.07;;;9.13;;
26034;SDS011;13809;48.632;11.576;2023-03-01T23:52:50;10.60;;;9.30;;
26034;SDS011;13809;48.632;11.576;2023-03-01T23:57:53;10.50;;;9.40;;
